createdAt,value
2023-02-16T00:00:21.490Z,3.57
2023-02-16T00:03:24.708Z,3.53
2023-02-16T00:06:28.820Z,3.63
2023-02-16T00:09:31.792Z,4.57
2023-02-16T00:12:54.588Z,3.20
2023-02-16T00:15:58.002Z,4.40
2023-02-16T00:19:00.898Z,4.10
2023-02-16T00:22:05.245Z,3.53
2023-02-16T00:25:08.320Z,3.22
2023-02-16T00:28:19.677Z,4.20
2023-02-16T00:31:24.747Z,4.93
2023-02-16T00:34:34.079Z,4.13
2023-02-16T00:37:36.388Z,4.57
2023-02-16T00:40:38.845Z,4.17
2023-02-16T00:43:40.914Z,4.73
2023-02-16T00:46:44.445Z,4.03
2023-02-16T00:49:51.572Z,4.63
2023-02-16T00:52:53.932Z,5.07
2023-02-16T00:55:57.099Z,4.73
2023-02-16T00:58:59.983Z,3.67
2023-02-16T01:02:01.979Z,4.47
2023-02-16T01:05:04.678Z,4.67
2023-02-16T01:08:33.365Z,4.37
2023-02-16T01:11:35.483Z,3.90
2023-02-16T01:14:37.622Z,3.00
2023-02-16T01:17:39.838Z,5.00
2023-02-16T01:20:42.359Z,3.70
2023-02-16T01:23:44.658Z,4.73
2023-02-16T01:26:49.822Z,4.17
2023-02-16T01:29:51.837Z,3.53
2023-02-16T01:32:54.455Z,3.23
2023-02-16T01:35:57.420Z,4.83
2023-02-16T01:39:00.320Z,3.47
2023-02-16T01:42:13.963Z,5.03
2023-02-16T01:45:20.432Z,4.40
2023-02-16T01:48:28.930Z,4.73
2023-02-16T01:51:49.326Z,5.40
2023-02-16T01:55:13.909Z,4.87
2023-02-16T01:59:05.072Z,4.88
2023-02-16T02:02:36.334Z,4.30
2023-02-16T02:05:39.735Z,5.37
2023-02-16T02:09:02.138Z,4.67
2023-02-16T02:12:14.385Z,4.90
2023-02-16T02:15:19.728Z,4.70
2023-02-16T02:18:22.702Z,5.13
2023-02-16T02:21:57.043Z,4.27
2023-02-16T02:25:15.438Z,5.30
2023-02-16T02:28:26.578Z,5.13
2023-02-16T02:31:37.179Z,5.40
2023-02-16T02:34:48.290Z,5.10
2023-02-16T02:38:09.765Z,5.10
2023-02-16T02:41:46.464Z,4.90
2023-02-16T02:45:14.120Z,4.33
2023-02-16T02:48:16.271Z,5.60
2023-02-16T02:51:30.989Z,5.10
2023-02-16T02:54:56.488Z,5.28
2023-02-16T02:58:37.364Z,5.37
2023-02-16T03:01:43.298Z,4.93
2023-02-16T03:04:48.298Z,4.90
2023-02-16T03:07:57.441Z,6.17
2023-02-16T03:11:28.633Z,5.53
2023-02-16T03:14:51.576Z,4.70
2023-02-16T03:18:15.183Z,6.50
2023-02-16T03:21:36.016Z,5.40
2023-02-16T03:24:56.516Z,4.73
2023-02-16T03:28:21.456Z,5.93
2023-02-16T03:31:33.010Z,5.53
2023-02-16T03:34:38.039Z,5.50
2023-02-16T03:37:44.994Z,5.57
2023-02-16T03:40:50.767Z,6.13
2023-02-16T03:43:52.884Z,6.53
2023-02-16T03:46:54.953Z,6.90
2023-02-16T03:49:57.908Z,6.13
2023-02-16T03:53:09.189Z,5.23
2023-02-16T03:56:11.391Z,6.07
2023-02-16T03:59:13.437Z,6.60
2023-02-16T04:02:15.673Z,7.03
2023-02-16T04:05:17.825Z,6.63
2023-02-16T04:08:20.015Z,7.63
2023-02-16T04:11:40.580Z,6.40
2023-02-16T04:14:43.754Z,7.43
2023-02-16T04:17:46.356Z,7.87
2023-02-16T04:20:48.597Z,8.47
2023-02-16T04:23:50.860Z,8.03
2023-02-16T04:26:53.149Z,6.77
2023-02-16T04:29:55.224Z,6.73
2023-02-16T04:32:59.684Z,6.93
2023-02-16T04:36:01.783Z,7.13
2023-02-16T04:39:04.050Z,7.37
2023-02-16T04:42:06.463Z,7.53
2023-02-16T04:45:12.695Z,8.43
2023-02-16T04:48:14.863Z,8.57
2023-02-16T04:51:16.895Z,7.97
2023-02-16T04:54:19.097Z,8.13
2023-02-16T04:57:22.692Z,8.57
2023-02-16T05:00:27.217Z,7.07
2023-02-16T05:03:29.302Z,8.50
2023-02-16T05:06:31.558Z,8.20
2023-02-16T05:09:33.723Z,7.63
2023-02-16T05:12:56.123Z,7.43
2023-02-16T05:16:04.944Z,8.13
2023-02-16T05:19:15.514Z,8.50
2023-02-16T05:22:19.244Z,9.17
2023-02-16T05:25:21.252Z,8.20
2023-02-16T05:28:23.575Z,10.50
2023-02-16T05:31:26.848Z,7.80
2023-02-16T05:34:28.989Z,6.77
2023-02-16T05:37:33.647Z,7.50
2023-02-16T05:40:44.735Z,6.47
2023-02-16T05:43:50.348Z,7.77
2023-02-16T05:46:52.531Z,8.03
2023-02-16T05:49:55.391Z,7.67
2023-02-16T05:52:57.902Z,8.07
2023-02-16T05:56:00.111Z,8.57
2023-02-16T05:59:02.322Z,7.73
2023-02-16T06:02:04.776Z,8.83
2023-02-16T06:05:07.220Z,8.83
2023-02-16T06:08:09.288Z,9.90
2023-02-16T06:11:31.862Z,8.63
2023-02-16T06:14:33.897Z,9.17
2023-02-16T06:17:35.980Z,9.57
2023-02-16T06:20:41.958Z,7.93
2023-02-16T06:23:43.964Z,9.57
2023-02-16T06:26:46.381Z,10.43
2023-02-16T06:29:48.531Z,9.37
2023-02-16T06:32:50.540Z,9.97
2023-02-16T06:35:53.976Z,9.80
2023-02-16T06:38:56.181Z,10.37
2023-02-16T06:41:58.453Z,9.33
2023-02-16T06:45:00.404Z,9.40
2023-02-16T06:48:02.413Z,8.93
2023-02-16T06:51:04.950Z,9.73
2023-02-16T06:54:07.289Z,11.10
2023-02-16T06:57:09.336Z,9.67
2023-02-16T07:00:11.956Z,9.67
2023-02-16T07:03:14.309Z,9.57
2023-02-16T07:06:16.609Z,10.33
2023-02-16T07:09:18.620Z,9.87
2023-02-16T07:12:20.730Z,10.63
2023-02-16T07:15:23.372Z,10.37
2023-02-16T07:18:25.582Z,8.73
2023-02-16T07:21:27.650Z,8.40
2023-02-16T07:24:29.686Z,9.13
2023-02-16T07:27:31.736Z,8.07
2023-02-16T07:30:33.951Z,8.33
2023-02-16T07:33:36.488Z,8.43
2023-02-16T07:36:38.571Z,7.70
2023-02-16T07:39:40.579Z,8.20
2023-02-16T07:42:42.670Z,7.37
2023-02-16T07:45:44.836Z,8.03
2023-02-16T07:48:50.581Z,8.37
2023-02-16T07:51:52.607Z,8.73
2023-02-16T07:54:54.796Z,6.90
2023-02-16T07:58:00.242Z,9.37
2023-02-16T08:01:10.843Z,7.90
2023-02-16T08:04:12.870Z,8.30
2023-02-16T08:07:16.232Z,7.33
2023-02-16T08:10:18.341Z,6.87
2023-02-16T08:13:20.362Z,7.47
2023-02-16T08:16:25.703Z,8.07
2023-02-16T08:19:29.417Z,8.37
2023-02-16T08:22:31.495Z,7.30
2023-02-16T08:25:34.628Z,7.25
2023-02-16T08:28:38.125Z,6.55
2023-02-16T08:31:40.321Z,6.20
2023-02-16T08:34:43.670Z,6.55
2023-02-16T08:37:46.176Z,6.28
2023-02-16T08:40:49.394Z,6.45
2023-02-16T08:43:52.495Z,7.18
2023-02-16T08:46:57.500Z,10.98
2023-02-16T08:49:59.851Z,7.43
2023-02-16T08:53:02.536Z,7.13
2023-02-16T08:56:05.314Z,7.07
2023-02-16T08:59:07.664Z,7.10
2023-02-16T09:02:14.599Z,5.47
2023-02-16T09:05:16.870Z,8.07
2023-02-16T09:08:19.825Z,8.00
2023-02-16T09:11:23.195Z,6.30
2023-02-16T09:14:25.561Z,6.23
2023-02-16T09:17:29.208Z,6.43
2023-02-16T09:20:31.381Z,6.15
2023-02-16T09:23:35.793Z,6.65
2023-02-16T09:26:42.753Z,6.85
2023-02-16T09:29:44.797Z,6.43
2023-02-16T09:32:47.200Z,6.75
2023-02-16T09:35:49.755Z,6.25
2023-02-16T09:38:52.656Z,6.47
2023-02-16T09:42:14.892Z,6.20
2023-02-16T09:45:20.519Z,5.32
2023-02-16T09:48:37.556Z,5.50
2023-02-16T09:51:44.685Z,5.85
2023-02-16T09:54:53.552Z,6.47
2023-02-16T09:58:19.301Z,6.85
2023-02-16T10:01:45.707Z,5.88
2023-02-16T10:04:54.290Z,6.47
2023-02-16T10:08:07.810Z,5.75
2023-02-16T10:11:45.760Z,5.75
2023-02-16T10:15:14.195Z,6.57
2023-02-16T10:18:33.656Z,6.43
2023-02-16T10:21:36.268Z,5.82
2023-02-16T10:25:02.478Z,5.43
2023-02-16T10:28:21.792Z,5.57
2023-02-16T10:31:40.429Z,6.95
2023-02-16T10:34:52.203Z,5.63
2023-02-16T10:37:59.385Z,6.75
2023-02-16T10:41:14.321Z,5.90
2023-02-16T10:44:21.079Z,6.20
2023-02-16T10:47:44.134Z,5.97
2023-02-16T10:50:58.923Z,6.43
2023-02-16T10:54:31.429Z,4.82
2023-02-16T10:57:33.817Z,6.03
2023-02-16T11:01:04.356Z,6.13
2023-02-16T11:04:06.721Z,7.05
2023-02-16T11:07:16.121Z,5.38
2023-02-16T11:10:35.194Z,5.68
2023-02-16T11:13:37.518Z,6.32
2023-02-16T11:16:39.582Z,7.45
2023-02-16T11:20:09.576Z,7.32
2023-02-16T11:23:25.339Z,6.45
2023-02-16T11:26:28.972Z,6.28
2023-02-16T11:29:31.696Z,6.25
2023-02-16T11:32:34.524Z,7.05
2023-02-16T11:35:43.646Z,7.47
2023-02-16T11:39:09.734Z,7.60
2023-02-16T11:42:40.405Z,7.47
2023-02-16T11:45:43.252Z,7.30
2023-02-16T11:48:46.433Z,6.97
2023-02-16T11:51:48.563Z,7.70
2023-02-16T11:55:02.112Z,6.53
2023-02-16T11:58:18.105Z,6.60
2023-02-16T12:01:23.270Z,6.80
2023-02-16T12:04:54.409Z,6.70
2023-02-16T12:08:32.436Z,8.20
2023-02-16T12:12:20.288Z,6.68
2023-02-16T12:15:40.167Z,6.32
2023-02-16T12:19:02.838Z,6.90
2023-02-16T12:22:27.668Z,8.73
2023-02-16T12:25:48.518Z,7.72
2023-02-16T12:29:09.211Z,7.20
2023-02-16T12:32:20.284Z,7.35
2023-02-16T12:35:56.974Z,5.35
2023-02-16T12:39:19.586Z,8.40
2023-02-16T12:42:44.452Z,6.95
2023-02-16T12:45:47.341Z,5.15
2023-02-16T12:48:57.192Z,5.53
2023-02-16T12:52:25.768Z,6.47
2023-02-16T12:55:31.123Z,6.68
2023-02-16T12:58:37.703Z,7.35
2023-02-16T13:01:40.546Z,5.65
2023-02-16T13:05:01.957Z,7.43
2023-02-16T13:08:42.576Z,6.75
2023-02-16T13:12:00.077Z,7.32
2023-02-16T13:15:13.330Z,6.40
2023-02-16T13:18:28.530Z,5.45
2023-02-16T13:21:52.793Z,6.95
2023-02-16T13:25:35.897Z,6.87
2023-02-16T13:28:44.105Z,6.75
2023-02-16T13:35:40.897Z,6.43
2023-02-16T13:39:04.507Z,7.03
2023-02-16T13:42:30.068Z,5.97
2023-02-16T13:45:38.517Z,5.90
2023-02-16T13:48:48.751Z,6.70
2023-02-16T13:51:50.834Z,6.43
2023-02-16T13:54:53.796Z,5.45
2023-02-16T13:58:07.763Z,4.95
2023-02-16T14:01:28.615Z,5.18
2023-02-16T14:04:31.588Z,5.68
2023-02-16T14:07:38.027Z,6.28
2023-02-16T14:10:55.211Z,5.93
2023-02-16T14:13:57.298Z,5.72
2023-02-16T14:17:24.157Z,5.60
2023-02-16T14:20:29.227Z,6.07
2023-02-16T14:23:34.925Z,4.88
2023-02-16T14:27:07.778Z,5.90
2023-02-16T14:30:29.066Z,4.55
2023-02-16T14:33:56.719Z,4.25
2023-02-16T14:37:17.155Z,4.80
2023-02-16T14:40:51.767Z,5.10
2023-02-16T14:44:06.161Z,5.05
2023-02-16T14:47:41.470Z,4.43
2023-02-16T14:50:55.320Z,4.18
2023-02-16T14:54:27.533Z,4.88
2023-02-16T14:57:38.493Z,4.90
2023-02-16T15:01:11.206Z,3.88
2023-02-16T15:04:26.336Z,5.32
2023-02-16T15:07:29.015Z,4.20
2023-02-16T15:10:32.358Z,5.35
2023-02-16T15:13:35.026Z,4.45
2023-02-16T15:16:40.950Z,4.88
2023-02-16T15:19:44.112Z,5.03
2023-02-16T15:22:54.517Z,3.58
2023-02-16T15:26:04.147Z,4.45
2023-02-16T15:29:27.243Z,3.78
2023-02-16T15:32:29.280Z,4.00
2023-02-16T15:35:44.054Z,4.10
2023-02-16T15:42:20.855Z,5.30
2023-02-16T15:45:42.066Z,4.15
2023-02-16T15:48:44.446Z,4.38
2023-02-16T15:51:46.488Z,4.10
2023-02-16T15:54:49.331Z,3.75
2023-02-16T15:57:51.452Z,3.80
2023-02-16T16:00:55.045Z,3.58
2023-02-16T16:03:57.219Z,3.30
2023-02-16T16:07:00.382Z,5.20
2023-02-16T16:10:09.603Z,3.17
2023-02-16T16:13:31.050Z,4.13
2023-02-16T16:16:33.744Z,3.53
2023-02-16T16:19:38.437Z,3.97
2023-02-16T16:22:42.993Z,4.22
2023-02-16T16:25:47.878Z,4.25
2023-02-16T16:28:50.638Z,4.82
2023-02-16T16:31:54.004Z,4.40
2023-02-16T16:34:56.674Z,4.38
2023-02-16T16:38:00.875Z,4.70
2023-02-16T16:41:04.178Z,4.55
2023-02-16T16:44:12.664Z,4.70
2023-02-16T16:47:23.822Z,4.70
2023-02-16T16:50:37.216Z,5.55
2023-02-16T16:54:01.837Z,4.28
2023-02-16T16:57:15.241Z,4.35
2023-02-16T17:00:19.518Z,4.03
2023-02-16T17:03:22.594Z,3.08
2023-02-16T17:06:25.843Z,5.05
2023-02-16T17:09:27.938Z,3.85
2023-02-16T17:12:31.703Z,4.25
2023-02-16T17:15:51.837Z,3.95
2023-02-16T17:18:54.363Z,3.88
2023-02-16T17:21:56.377Z,4.25
2023-02-16T17:24:58.510Z,4.07
2023-02-16T17:28:01.242Z,6.65
2023-02-16T17:31:08.366Z,5.30
2023-02-16T17:34:11.438Z,4.45
2023-02-16T17:37:13.593Z,4.40
2023-02-16T17:40:19.688Z,4.65
2023-02-16T17:43:22.850Z,4.85
2023-02-16T17:46:27.048Z,5.40
2023-02-16T17:49:31.366Z,5.07
2023-02-16T17:52:33.419Z,5.32
2023-02-16T17:55:35.367Z,6.55
2023-02-16T17:58:37.357Z,6.45
2023-02-16T18:01:39.410Z,4.85
2023-02-16T18:04:41.542Z,4.88
2023-02-16T18:07:43.625Z,5.22
2023-02-16T18:10:51.505Z,6.20
2023-02-16T18:13:53.633Z,6.68
2023-02-16T18:16:56.017Z,5.97
2023-02-16T18:19:58.041Z,5.68
2023-02-16T18:23:00.529Z,6.22
2023-02-16T18:26:03.570Z,6.57
2023-02-16T18:29:06.074Z,5.97
2023-02-16T18:32:08.250Z,4.63
2023-02-16T18:35:10.935Z,5.75
2023-02-16T18:38:13.550Z,5.95
2023-02-16T18:41:15.621Z,5.85
2023-02-16T18:44:17.807Z,5.90
2023-02-16T18:47:19.979Z,6.05
2023-02-16T18:50:21.923Z,7.13
2023-02-16T18:53:23.914Z,5.05
2023-02-16T18:56:26.093Z,5.75
2023-02-16T18:59:28.381Z,7.63
2023-02-16T19:02:30.417Z,6.07
2023-02-16T19:05:33.849Z,7.05
2023-02-16T19:08:36.235Z,7.85
2023-02-16T19:11:38.292Z,7.15
2023-02-16T19:14:40.393Z,5.85
2023-02-16T19:17:42.913Z,11.80
2023-02-16T19:20:44.922Z,9.18
2023-02-16T19:23:47.131Z,12.52
2023-02-16T19:26:49.321Z,7.82
2023-02-16T19:29:51.504Z,8.70
2023-02-16T19:32:53.549Z,6.85
2023-02-16T19:36:07.346Z,6.00
2023-02-16T19:39:10.464Z,9.30
2023-02-16T19:42:12.639Z,6.60
2023-02-16T19:45:14.647Z,7.43
2023-02-16T19:48:18.966Z,10.20
2023-02-16T19:51:21.050Z,9.73
2023-02-16T19:54:25.274Z,9.13
2023-02-16T19:57:27.444Z,7.38
2023-02-16T20:00:30.369Z,6.53
2023-02-16T20:03:32.493Z,6.70
2023-02-16T20:06:40.559Z,5.93
2023-02-16T20:09:42.915Z,7.00
2023-02-16T20:12:44.947Z,7.13
2023-02-16T20:15:47.198Z,7.03
2023-02-16T20:18:50.452Z,6.77
2023-02-16T20:21:52.474Z,7.10
2023-02-16T20:24:54.526Z,6.90
2023-02-16T20:27:57.878Z,8.63
2023-02-16T20:31:00.109Z,8.13
2023-02-16T20:34:03.266Z,7.57
2023-02-16T20:37:05.307Z,7.77
2023-02-16T20:40:07.921Z,7.00
2023-02-16T20:43:10.158Z,9.57
2023-02-16T20:46:13.083Z,7.30
2023-02-16T20:49:16.524Z,10.00
2023-02-16T20:52:18.570Z,7.97
2023-02-16T20:55:22.544Z,6.47
2023-02-16T20:58:24.670Z,7.13
2023-02-16T21:01:33.342Z,6.77
2023-02-16T21:04:35.431Z,7.57
2023-02-16T21:07:37.541Z,9.23
2023-02-16T21:10:39.925Z,8.87
2023-02-16T21:13:42.065Z,7.00
2023-02-16T21:16:44.281Z,7.60
2023-02-16T21:19:46.318Z,7.90
2023-02-16T21:22:48.370Z,7.23
2023-02-16T21:25:50.418Z,8.07
2023-02-16T21:28:53.042Z,6.70
2023-02-16T21:31:55.144Z,8.17
2023-02-16T21:34:57.242Z,7.20
2023-02-16T21:37:59.368Z,7.27
2023-02-16T21:41:24.796Z,5.33
2023-02-16T21:44:28.501Z,7.10
2023-02-16T21:47:49.136Z,8.57
2023-02-16T21:50:51.245Z,6.73
2023-02-16T21:53:53.912Z,8.13
2023-02-16T21:56:55.921Z,8.60
2023-02-16T21:59:58.022Z,6.97
2023-02-16T22:03:00.226Z,6.93
2023-02-16T22:06:07.342Z,8.37
2023-02-16T22:09:18.004Z,7.97
2023-02-16T22:12:20.042Z,6.33
2023-02-16T22:15:22.449Z,6.17
2023-02-16T22:18:24.517Z,7.83
2023-02-16T22:21:27.784Z,6.50
2023-02-16T22:24:29.963Z,7.30
2023-02-16T22:27:32.081Z,6.27
2023-02-16T22:30:37.143Z,6.10
2023-02-16T22:33:39.243Z,5.38
2023-02-16T22:36:42.070Z,6.90
2023-02-16T22:39:44.232Z,8.10
2023-02-16T22:42:46.713Z,7.50
2023-02-16T22:45:49.623Z,5.80
2023-02-16T22:48:52.328Z,6.63
2023-02-16T22:51:54.420Z,5.50
2023-02-16T22:54:56.853Z,6.70
2023-02-16T22:57:58.870Z,6.53
2023-02-16T23:01:01.041Z,6.90
2023-02-16T23:04:03.122Z,6.83
2023-02-16T23:07:05.245Z,5.83
2023-02-16T23:10:07.789Z,5.73
2023-02-16T23:13:10.290Z,5.00
2023-02-16T23:16:15.010Z,6.30
2023-02-16T23:22:23.125Z,6.80
2023-02-16T23:25:34.080Z,7.40
2023-02-16T23:28:38.366Z,7.33
2023-02-16T23:31:43.404Z,6.28
2023-02-16T23:34:45.455Z,4.97
2023-02-16T23:37:47.618Z,5.73
2023-02-16T23:41:04.641Z,6.93
2023-02-16T23:44:07.769Z,7.77
2023-02-16T23:47:10.212Z,6.47
2023-02-16T23:50:12.355Z,6.67
2023-02-16T23:53:14.424Z,5.83
2023-02-16T23:56:27.847Z,4.97
2023-02-16T23:59:30.598Z,6.37
